Dan G — WDG7879 — position and weather

sailwx.info

Track history (hours):
 
Tides and Currents Weather Stations Pressure Air Temp Water Temp Dewpoint Dewpoint Depression Visibility Wind Speed Wind Dir Waves Ship Positions

Dan G

Owner: Weeks Marine, Inc., Cranford, NJ. More information available from US FCC via Universal Licensing System and Coast Guard Vessel Documentation Center.

Last reported at 2017-Oct-06 11:26 UTC. Time now 2017-Oct-18 05:42 UTC.
Position N 39°21' W 074°25'.
Warning: this ship's position is 11 days out of date.

Length 13 m.

Type: Other ship. MMSI: 367571760.

Date/timePositionNaut miles runAvg speedWind from/ knotsBaromVisibWave heightAir tempDewpointWater temp
2017-Oct-06 11:26N 39°21' W 074°25'2 0.1
2017-Oct-05 13:43N 39°23' W 074°25'1 2.4
2017-Oct-05 13:25N 39°24' W 074°26'1 2.4
2017-Oct-05 12:53N 39°23' W 074°26'2 1.4
2017-Oct-05 11:42N 39°21' W 074°26'3 2.1
2017-Oct-05 10:18N 39°24' W 074°26'18 0.4
2017-Oct-03 15:37N 39°37' W 074°10'219.6
2017-Oct-03 15:31N 39°39' W 074°09'713.8
2017-Oct-03 15:01N 39°46' W 074°07'1 0.5
2017-Oct-03 13:59N 39°46' W 074°06'1 1.8
2017-Oct-03 13:30N 39°46' W 074°07'0 0.3
2017-Oct-03 12:57N 39°46' W 074°07'0 0.0
2017-Oct-03 12:25N 39°46' W 074°07'0 0.0
2017-Oct-03 11:55N 39°46' W 074°07'0 0.4
2017-Oct-03 11:28N 39°46' W 074°07'0 0.4
2017-Oct-03 11:00N 39°46' W 074°07'0 0.0
2017-Oct-03 10:30N 39°46' W 074°07'0 0.0
2017-Oct-02 20:32N 39°46' W 074°07'0 5.1
2017-Oct-02 20:30N 39°46' W 074°07'2 0.3
2017-Oct-02 12:10N 39°47' W 074°05'1 4.1
2017-Oct-02 11:54N 39°46' W 074°05'1 3.0
2017-Oct-02 11:29N 39°46' W 074°06'0 1.0
2017-Oct-02 10:59N 39°46' W 074°07'1 2.7
2017-Oct-02 10:27N 39°45' W 074°05'1 0.1
2017-Oct-01 21:16N 39°46' W 074°07'1 1.1
2017-Oct-01 20:49N 39°46' W 074°07'0 0.1
2017-Oct-01 20:25N 39°46' W 074°07'0 0.0
2017-Oct-01 19:55N 39°46' W 074°07'0 0.1
2017-Oct-01 18:23N 39°46' W 074°07'0 0.2
2017-Oct-01 17:52N 39°46' W 074°07'0 0.4
2017-Oct-01 17:28N 39°46' W 074°07'0 0.2
2017-Oct-01 16:48N 39°46' W 074°07'0 0.0
2017-Oct-01 16:30N 39°46' W 074°07'0 0.9
2017-Oct-01 16:00N 39°46' W 074°07'1 0.8
2017-Oct-01 15:17N 39°46' W 074°07'0 0.7
2017-Oct-01 15:00N 39°46' W 074°07'0 0.2
2017-Oct-01 14:12N 39°46' W 074°07'0 0.0
2017-Oct-01 14:00N 39°46' W 074°07'0 0.0
2017-Oct-01 13:30N 39°46' W 074°07'0 0.0
2017-Oct-01 13:00N 39°46' W 074°07'0 0.8
2017-Oct-01 12:25N 39°46' W 074°07'0 0.6
2017-Oct-01 12:00N 39°46' W 074°07'0 0.4
2017-Oct-01 11:26N 39°46' W 074°07'0 0.1
2017-Oct-01 10:45N 39°46' W 074°07'0 0.0
2017-Oct-01 10:27N 39°46' W 074°07'0 0.0
2017-Sep-29 21:40N 39°46' W 074°07'0 2.3
2017-Sep-29 21:30N 39°46' W 074°07'0 0.0
2017-Sep-29 20:56N 39°46' W 074°07'0 0.0
2017-Sep-29 20:26N 39°46' W 074°07'0 0.0
2017-Sep-29 19:59N 39°46' W 074°07'0 0.6
2017-Sep-29 19:29N 39°46' W 074°07'0 0.6
2017-Sep-29 18:52N 39°46' W 074°07'1 1.5
2017-Sep-29 18:20N 39°45' W 074°07'0 0.1
2017-Sep-29 18:00N 39°45' W 074°07'1 1.4
2017-Sep-29 17:30N 39°46' W 074°07'0 0.1
2017-Sep-29 16:54N 39°46' W 074°07'0 0.0
2017-Sep-29 16:19N 39°46' W 074°07'0 0.9
2017-Sep-29 15:59N 39°46' W 074°07'0 0.4
2017-Sep-29 15:11N 39°46' W 074°07'0 0.0
2017-Sep-29 14:53N 39°46' W 074°07'0 0.0
2017-Sep-29 14:17N 39°46' W 074°07'0 0.2
2017-Sep-29 14:00N 39°46' W 074°07'0 0.6
2017-Sep-29 13:22N 39°46' W 074°07'0 0.8
2017-Sep-29 12:57N 39°46' W 074°07'0 0.1
2017-Sep-29 12:27N 39°46' W 074°07'0 0.0
2017-Sep-29 11:57N 39°46' W 074°07'0 0.0
2017-Sep-29 11:27N 39°46' W 074°07'0 0.0
2017-Sep-29 10:57N 39°46' W 074°07'0 0.0
2017-Sep-29 10:21N 39°46' W 074°07'0 0.0
2017-Sep-28 19:41N 39°46' W 074°07'0 1.3
2017-Sep-28 19:30N 39°46' W 074°07'0 0.0
2017-Sep-28 18:57N 39°46' W 074°07'0 0.0
2017-Sep-28 18:27N 39°46' W 074°07'0 0.1
2017-Sep-28 17:58N 39°46' W 074°07'0 0.3
2017-Sep-28 17:30N 39°46' W 074°07'0 0.2
2017-Sep-28 16:50N 39°46' W 074°07'0 0.0
2017-Sep-28 16:26N 39°46' W 074°07'0 0.0
2017-Sep-28 15:56N 39°46' W 074°07'0 0.0
2017-Sep-28 15:20N 39°46' W 074°07'0 0.0
2017-Sep-28 14:56N 39°46' W 074°07'0 0.6
2017-Sep-28 14:30N 39°46' W 074°07'0 0.4
2017-Sep-28 13:56N 39°46' W 074°07'0 0.0
2017-Sep-28 13:20N 39°46' W 074°07'0 0.2
2017-Sep-28 12:32N 39°46' W 074°07'0 2.3
2017-Sep-28 12:28N 39°46' W 074°07'0 0.8
2017-Sep-28 12:00N 39°46' W 074°07'0 0.2
2017-Sep-28 11:24N 39°46' W 074°07'1 1.1
2017-Sep-28 10:48N 39°45' W 074°07'0 0.0
2017-Sep-28 10:30N 39°45' W 074°07'1 0.0
2017-Sep-27 20:35N 39°46' W 074°07'1 0.5
2017-Sep-27 19:24N 39°45' W 074°07'0 0.0
2017-Sep-27 18:59N 39°45' W 074°07'0 1.0
2017-Sep-27 18:30N 39°46' W 074°07'0 0.3
2017-Sep-27 16:43N 39°45' W 074°07'0 0.1
2017-Sep-27 16:29N 39°45' W 074°07'0 0.0
2017-Sep-27 15:12N 39°45' W 074°07'0 0.0
2017-Sep-27 14:51N 39°45' W 074°07'0 0.0
2017-Sep-27 14:24N 39°45' W 074°07'0 0.0
2017-Sep-27 14:00N 39°45' W 074°07'0 0.0
2017-Sep-27 13:27N 39°45' W 074°07'0 0.0
2017-Sep-27 12:57N 39°45' W 074°07'0 0.0
2017-Sep-27 12:27N 39°45' W 074°07'0 0.9
2017-Sep-27 11:56N 39°46' W 074°07'0 0.9
2017-Sep-27 11:25N 39°45' W 074°07'0 0.0
2017-Sep-27 10:55N 39°45' W 074°07'0 0.0
2017-Sep-27 10:22N 39°45' W 074°07'1 0.0
2017-Sep-26 18:54N 39°46' W 074°07'1 1.5
2017-Sep-26 18:29N 39°45' W 074°07'0 0.0
2017-Sep-26 17:41N 39°45' W 074°07'0 0.0
2017-Sep-26 17:23N 39°45' W 074°07'0 0.0
2017-Sep-26 16:51N 39°45' W 074°07'0 0.0
2017-Sep-26 16:21N 39°45' W 074°07'0 0.0
2017-Sep-26 15:57N 39°45' W 074°07'0 0.0
2017-Sep-26 15:21N 39°45' W 074°07'0 0.0
2017-Sep-26 14:57N 39°45' W 074°07'0 0.0
2017-Sep-26 14:09N 39°45' W 074°07'0 0.0
2017-Sep-26 13:57N 39°45' W 074°07'0 0.0
2017-Sep-26 13:01N 39°45' W 074°07'0 0.0
2017-Sep-26 12:34N 39°45' W 074°07'0 0.0
2017-Sep-26 12:28N 39°45' W 074°07'0 0.0
2017-Sep-26 11:59N 39°45' W 074°07'  
Track history (hours):
 
Tides and Currents Weather Stations Pressure Air Temp Water Temp Dewpoint Dewpoint Depression Visibility Wind Speed Wind Dir Waves Ship Positions

Dan G

Owner: Weeks Marine, Inc., Cranford, NJ. More information available from US FCC via Universal Licensing System and Coast Guard Vessel Documentation Center.

Last reported at 2017-Oct-06 11:26 UTC. Time now 2017-Oct-18 05:42 UTC.
Position N 39°21' W 074°25'.
Warning: this ship's position is 11 days out of date.

Length 13 m.

Type: Other ship. MMSI: 367571760.

Date/timePositionNaut miles runAvg speedWind from/ knotsBaromVisibWave heightAir tempDewpointWater temp
2017-Oct-06 11:26N 39°21' W 074°25'2 0.1
2017-Oct-05 13:43N 39°23' W 074°25'1 2.4
2017-Oct-05 13:25N 39°24' W 074°26'1 2.4
2017-Oct-05 12:53N 39°23' W 074°26'2 1.4
2017-Oct-05 11:42N 39°21' W 074°26'3 2.1
2017-Oct-05 10:18N 39°24' W 074°26'18 0.4
2017-Oct-03 15:37N 39°37' W 074°10'219.6
2017-Oct-03 15:31N 39°39' W 074°09'713.8
2017-Oct-03 15:01N 39°46' W 074°07'1 0.5
2017-Oct-03 13:59N 39°46' W 074°06'1 1.8
2017-Oct-03 13:30N 39°46' W 074°07'0 0.3
2017-Oct-03 12:57N 39°46' W 074°07'0 0.0
2017-Oct-03 12:25N 39°46' W 074°07'0 0.0
2017-Oct-03 11:55N 39°46' W 074°07'0 0.4
2017-Oct-03 11:28N 39°46' W 074°07'0 0.4
2017-Oct-03 11:00N 39°46' W 074°07'0 0.0
2017-Oct-03 10:30N 39°46' W 074°07'0 0.0
2017-Oct-02 20:32N 39°46' W 074°07'0 5.1
2017-Oct-02 20:30N 39°46' W 074°07'2 0.3
2017-Oct-02 12:10N 39°47' W 074°05'1 4.1
2017-Oct-02 11:54N 39°46' W 074°05'1 3.0
2017-Oct-02 11:29N 39°46' W 074°06'0 1.0
2017-Oct-02 10:59N 39°46' W 074°07'1 2.7
2017-Oct-02 10:27N 39°45' W 074°05'1 0.1
2017-Oct-01 21:16N 39°46' W 074°07'1 1.1
2017-Oct-01 20:49N 39°46' W 074°07'0 0.1
2017-Oct-01 20:25N 39°46' W 074°07'0 0.0
2017-Oct-01 19:55N 39°46' W 074°07'0 0.1
2017-Oct-01 18:23N 39°46' W 074°07'0 0.2
2017-Oct-01 17:52N 39°46' W 074°07'0 0.4
2017-Oct-01 17:28N 39°46' W 074°07'0 0.2
2017-Oct-01 16:48N 39°46' W 074°07'0 0.0
2017-Oct-01 16:30N 39°46' W 074°07'0 0.9
2017-Oct-01 16:00N 39°46' W 074°07'1 0.8
2017-Oct-01 15:17N 39°46' W 074°07'0 0.7
2017-Oct-01 15:00N 39°46' W 074°07'0 0.2
2017-Oct-01 14:12N 39°46' W 074°07'0 0.0
2017-Oct-01 14:00N 39°46' W 074°07'0 0.0
2017-Oct-01 13:30N 39°46' W 074°07'0 0.0
2017-Oct-01 13:00N 39°46' W 074°07'0 0.8
2017-Oct-01 12:25N 39°46' W 074°07'0 0.6
2017-Oct-01 12:00N 39°46' W 074°07'0 0.4
2017-Oct-01 11:26N 39°46' W 074°07'0 0.1
2017-Oct-01 10:45N 39°46' W 074°07'0 0.0
2017-Oct-01 10:27N 39°46' W 074°07'0 0.0
2017-Sep-29 21:40N 39°46' W 074°07'0 2.3
2017-Sep-29 21:30N 39°46' W 074°07'0 0.0
2017-Sep-29 20:56N 39°46' W 074°07'0 0.0
2017-Sep-29 20:26N 39°46' W 074°07'0 0.0
2017-Sep-29 19:59N 39°46' W 074°07'0 0.6
2017-Sep-29 19:29N 39°46' W 074°07'0 0.6
2017-Sep-29 18:52N 39°46' W 074°07'1 1.5
2017-Sep-29 18:20N 39°45' W 074°07'0 0.1
2017-Sep-29 18:00N 39°45' W 074°07'1 1.4
2017-Sep-29 17:30N 39°46' W 074°07'0 0.1
2017-Sep-29 16:54N 39°46' W 074°07'0 0.0
2017-Sep-29 16:19N 39°46' W 074°07'0 0.9
2017-Sep-29 15:59N 39°46' W 074°07'0 0.4
2017-Sep-29 15:11N 39°46' W 074°07'0 0.0
2017-Sep-29 14:53N 39°46' W 074°07'0 0.0
2017-Sep-29 14:17N 39°46' W 074°07'0 0.2
2017-Sep-29 14:00N 39°46' W 074°07'0 0.6
2017-Sep-29 13:22N 39°46' W 074°07'0 0.8
2017-Sep-29 12:57N 39°46' W 074°07'0 0.1
2017-Sep-29 12:27N 39°46' W 074°07'0 0.0
2017-Sep-29 11:57N 39°46' W 074°07'0 0.0
2017-Sep-29 11:27N 39°46' W 074°07'0 0.0
2017-Sep-29 10:57N 39°46' W 074°07'0 0.0
2017-Sep-29 10:21N 39°46' W 074°07'0 0.0
2017-Sep-28 19:41N 39°46' W 074°07'0 1.3
2017-Sep-28 19:30N 39°46' W 074°07'0 0.0
2017-Sep-28 18:57N 39°46' W 074°07'0 0.0
2017-Sep-28 18:27N 39°46' W 074°07'0 0.1
2017-Sep-28 17:58N 39°46' W 074°07'0 0.3
2017-Sep-28 17:30N 39°46' W 074°07'0 0.2
2017-Sep-28 16:50N 39°46' W 074°07'0 0.0
2017-Sep-28 16:26N 39°46' W 074°07'0 0.0
2017-Sep-28 15:56N 39°46' W 074°07'0 0.0
2017-Sep-28 15:20N 39°46' W 074°07'0 0.0
2017-Sep-28 14:56N 39°46' W 074°07'0 0.6
2017-Sep-28 14:30N 39°46' W 074°07'0 0.4
2017-Sep-28 13:56N 39°46' W 074°07'0 0.0
2017-Sep-28 13:20N 39°46' W 074°07'0 0.2
2017-Sep-28 12:32N 39°46' W 074°07'0 2.3
2017-Sep-28 12:28N 39°46' W 074°07'0 0.8
2017-Sep-28 12:00N 39°46' W 074°07'0 0.2
2017-Sep-28 11:24N 39°46' W 074°07'1 1.1
2017-Sep-28 10:48N 39°45' W 074°07'0 0.0
2017-Sep-28 10:30N 39°45' W 074°07'1 0.0
2017-Sep-27 20:35N 39°46' W 074°07'1 0.5
2017-Sep-27 19:24N 39°45' W 074°07'0 0.0
2017-Sep-27 18:59N 39°45' W 074°07'0 1.0
2017-Sep-27 18:30N 39°46' W 074°07'0 0.3
2017-Sep-27 16:43N 39°45' W 074°07'0 0.1
2017-Sep-27 16:29N 39°45' W 074°07'0 0.0
2017-Sep-27 15:12N 39°45' W 074°07'0 0.0
2017-Sep-27 14:51N 39°45' W 074°07'0 0.0
2017-Sep-27 14:24N 39°45' W 074°07'0 0.0
2017-Sep-27 14:00N 39°45' W 074°07'0 0.0
2017-Sep-27 13:27N 39°45' W 074°07'0 0.0
2017-Sep-27 12:57N 39°45' W 074°07'0 0.0
2017-Sep-27 12:27N 39°45' W 074°07'0 0.9
2017-Sep-27 11:56N 39°46' W 074°07'0 0.9
2017-Sep-27 11:25N 39°45' W 074°07'0 0.0
2017-Sep-27 10:55N 39°45' W 074°07'0 0.0
2017-Sep-27 10:22N 39°45' W 074°07'1 0.0
2017-Sep-26 18:54N 39°46' W 074°07'1 1.5
2017-Sep-26 18:29N 39°45' W 074°07'0 0.0
2017-Sep-26 17:41N 39°45' W 074°07'0 0.0
2017-Sep-26 17:23N 39°45' W 074°07'0 0.0
2017-Sep-26 16:51N 39°45' W 074°07'0 0.0
2017-Sep-26 16:21N 39°45' W 074°07'0 0.0
2017-Sep-26 15:57N 39°45' W 074°07'0 0.0
2017-Sep-26 15:21N 39°45' W 074°07'0 0.0
2017-Sep-26 14:57N 39°45' W 074°07'0 0.0
2017-Sep-26 14:09N 39°45' W 074°07'0 0.0
2017-Sep-26 13:57N 39°45' W 074°07'0 0.0
2017-Sep-26 13:01N 39°45' W 074°07'0 0.0
2017-Sep-26 12:34N 39°45' W 074°07'0 0.0
2017-Sep-26 12:28N 39°45' W 074°07'0 0.0
2017-Sep-26 11:59N 39°45' W 074°07'  

Dump ship's entire track history